EDFH/HHN METAR and TAF weather

Enter ICAO airport designator
Station Type Date Time Source
EDFH METAR 2022/05/23 15:20 UTC NOAA

EDFH 231520Z 21017KT 9999 SCT030 21/14 Q1001


Station Type Date Time Source
EDFH Decoded METAR 2022/05/23 15:20 UTC NOAA

Hahn, Germany (EDFH) 49-57N 007-16E 498M
May 23, 2022 - 11:20 AM EDT / 2022.05.23 1520 UTC
Wind: from the SSW (210 degrees) at 20 MPH (17 KT):0
Visibility: greater than 7 mile(s):0
Sky conditions: partly cloudy
Temperature: 69 F (21 C)
Dew Point: 57 F (14 C)
Relative Humidity: 64%
Pressure (altimeter): 29.56 in. Hg (1001 hPa)
ob: EDFH 231520Z 21017KT 9999 SCT030 21/14 Q1001
cycle: 15

Station Type Date Time Source
EDFH TAF 2022/05/23 12:31 UTC NOAA

TAF EDFH 231100Z 2312/2412 20010KT 9999 SCT030
TEMPO 2312/2318 23020G35KT 4000 TSRA BKN020CB PROB30
TEMPO 2313/2317 24030G45KT 1500 +TSRAGR BKN014CB
BECMG 2318/2320 26012KT
TEMPO 2321/2406 BKN010 PROB30
TEMPO 2403/2406 4500 SHRA BKN009TCU
BECMG 2407/2409 26015G25KT

Example: see airport list